sensor_id;sensor_type;location;lat;lon;timestamp;pressure;altitude;pressure_sealevel;temperature;humidity
40490;BME280;26196;52.302;10.572;2022-07-10T00:00:11;101359.38;;;21.05;41.42
40490;BME280;26196;52.302;10.572;2022-07-10T00:04:12;101360.59;;;21.00;41.46
40490;BME280;26196;52.302;10.572;2022-07-10T00:08:12;101355.94;;;21.03;41.49
40490;BME280;26196;52.302;10.572;2022-07-10T00:12:12;101353.38;;;21.02;41.58
40490;BME280;26196;52.302;10.572;2022-07-10T00:16:13;101359.63;;;21.01;41.44
40490;BME280;26196;52.302;10.572;2022-07-10T00:20:14;101347.28;;;21.00;41.53
40490;BME280;26196;52.302;10.572;2022-07-10T00:24:14;101353.72;;;20.95;41.57
40490;BME280;26196;52.302;10.572;2022-07-10T00:28:15;101350.31;;;20.93;41.67
40490;BME280;26196;52.302;10.572;2022-07-10T00:32:15;101349.41;;;20.93;41.59
40490;BME280;26196;52.302;10.572;2022-07-10T00:36:16;101356.72;;;20.89;41.64
40490;BME280;26196;52.302;10.572;2022-07-10T00:40:16;101354.16;;;20.88;41.70
40490;BME280;26196;52.302;10.572;2022-07-10T00:44:17;101350.81;;;20.84;41.75
40490;BME280;26196;52.302;10.572;2022-07-10T00:48:17;101349.09;;;20.83;41.87
40490;BME280;26196;52.302;10.572;2022-07-10T00:52:18;101351.84;;;20.82;41.92
40490;BME280;26196;52.302;10.572;2022-07-10T00:56:21;101352.88;;;20.79;41.84
40490;BME280;26196;52.302;10.572;2022-07-10T01:00:23;101344.38;;;20.72;41.78
40490;BME280;26196;52.302;10.572;2022-07-10T01:04:24;101348.94;;;20.70;41.68
40490;BME280;26196;52.302;10.572;2022-07-10T01:08:25;101342.91;;;20.67;41.97
40490;BME280;26196;52.302;10.572;2022-07-10T01:12:27;101348.16;;;20.68;42.04
40490;BME280;26196;52.302;10.572;2022-07-10T01:16:29;101349.19;;;20.66;42.24
40490;BME280;26196;52.302;10.572;2022-07-10T01:20:30;101349.38;;;20.63;42.28
40490;BME280;26196;52.302;10.572;2022-07-10T01:24:32;101347.56;;;20.63;42.60
40490;BME280;26196;52.302;10.572;2022-07-10T01:28:33;101351.06;;;20.64;42.65
40490;BME280;26196;52.302;10.572;2022-07-10T01:32:38;101352.81;;;20.65;42.75
40490;BME280;26196;52.302;10.572;2022-07-10T01:36:39;101348.59;;;20.61;42.39
40490;BME280;26196;52.302;10.572;2022-07-10T01:40:39;101344.13;;;20.61;43.09
40490;BME280;26196;52.302;10.572;2022-07-10T01:44:40;101335.38;;;20.59;43.02
40490;BME280;26196;52.302;10.572;2022-07-10T01:48:41;101324.06;;;20.56;43.11
40490;BME280;26196;52.302;10.572;2022-07-10T01:52:42;101325.00;;;20.54;43.42
40490;BME280;26196;52.302;10.572;2022-07-10T01:56:42;101320.59;;;20.53;43.41
40490;BME280;26196;52.302;10.572;2022-07-10T02:00:43;101329.59;;;20.51;43.51
40490;BME280;26196;52.302;10.572;2022-07-10T02:04:45;101324.38;;;20.49;43.50
40490;BME280;26196;52.302;10.572;2022-07-10T02:08:45;101324.38;;;20.49;43.64
40490;BME280;26196;52.302;10.572;2022-07-10T02:12:46;101323.50;;;20.49;43.83
40490;BME280;26196;52.302;10.572;2022-07-10T02:16:46;101319.97;;;20.48;43.95
40490;BME280;26196;52.302;10.572;2022-07-10T02:20:47;101319.19;;;20.46;43.93
40490;BME280;26196;52.302;10.572;2022-07-10T02:24:47;101318.34;;;20.46;44.11
40490;BME280;26196;52.302;10.572;2022-07-10T02:28:47;101320.16;;;20.45;44.03
40490;BME280;26196;52.302;10.572;2022-07-10T02:32:48;101302.50;;;20.44;44.25
40490;BME280;26196;52.302;10.572;2022-07-10T02:36:48;101302.63;;;20.41;44.21
40490;BME280;26196;52.302;10.572;2022-07-10T02:40:50;101294.66;;;20.41;44.22
40490;BME280;26196;52.302;10.572;2022-07-10T02:44:51;101294.66;;;20.41;44.34
40490;BME280;26196;52.302;10.572;2022-07-10T02:48:51;101293.13;;;20.37;44.21
40490;BME280;26196;52.302;10.572;2022-07-10T02:52:52;101295.97;;;20.34;44.41
40490;BME280;26196;52.302;10.572;2022-07-10T02:56:52;101295.00;;;20.35;44.37
40490;BME280;26196;52.302;10.572;2022-07-10T03:00:53;101292.59;;;20.30;44.35
40490;BME280;26196;52.302;10.572;2022-07-10T03:04:53;101286.25;;;20.33;44.33
40490;BME280;26196;52.302;10.572;2022-07-10T03:08:54;101284.63;;;20.30;44.49
40490;BME280;26196;52.302;10.572;2022-07-10T03:12:54;101291.75;;;20.30;44.56
40490;BME280;26196;52.302;10.572;2022-07-10T03:16:55;101289.09;;;20.30;44.53
40490;BME280;26196;52.302;10.572;2022-07-10T03:20:55;101273.56;;;20.22;44.48
40490;BME280;26196;52.302;10.572;2022-07-10T03:24:55;101290.22;;;20.26;44.57
40490;BME280;26196;52.302;10.572;2022-07-10T03:28:56;101286.78;;;20.24;44.59
40490;BME280;26196;52.302;10.572;2022-07-10T03:32:56;101289.50;;;20.22;44.53
40490;BME280;26196;52.302;10.572;2022-07-10T03:36:58;101289.63;;;20.21;44.79
40490;BME280;26196;52.302;10.572;2022-07-10T03:40:58;101287.88;;;20.20;44.58
40490;BME280;26196;52.302;10.572;2022-07-10T03:44:59;101291.50;;;20.19;44.63
40490;BME280;26196;52.302;10.572;2022-07-10T03:48:59;101296.28;;;20.12;44.63
40490;BME280;26196;52.302;10.572;2022-07-10T03:53:00;101292.88;;;20.10;44.63
40490;BME280;26196;52.302;10.572;2022-07-10T03:57:00;101301.53;;;20.14;44.74
40490;BME280;26196;52.302;10.572;2022-07-10T04:01:19;101291.84;;;20.13;44.79
40490;BME280;26196;52.302;10.572;2022-07-10T04:05:20;101301.53;;;20.14;44.92
40490;BME280;26196;52.302;10.572;2022-07-10T04:09:21;101287.38;;;20.13;44.94
40490;BME280;26196;52.302;10.572;2022-07-10T04:13:21;101283.41;;;20.20;44.95
40490;BME280;26196;52.302;10.572;2022-07-10T04:17:22;101280.50;;;20.25;44.93
40490;BME280;26196;52.302;10.572;2022-07-10T04:21:22;101277.53;;;20.31;44.83
40490;BME280;26196;52.302;10.572;2022-07-10T04:25:23;101277.25;;;20.36;44.66
40490;BME280;26196;52.302;10.572;2022-07-10T04:29:23;101274.34;;;20.40;44.50
40490;BME280;26196;52.302;10.572;2022-07-10T04:33:25;101276.16;;;20.40;44.38
40490;BME280;26196;52.302;10.572;2022-07-10T04:37:26;101282.16;;;20.43;44.22
40490;BME280;26196;52.302;10.572;2022-07-10T04:41:26;101279.50;;;20.43;44.31
40490;BME280;26196;52.302;10.572;2022-07-10T04:45:27;101285.75;;;20.42;44.26
40490;BME280;26196;52.302;10.572;2022-07-10T04:49:27;101281.47;;;20.40;44.41
40490;BME280;26196;52.302;10.572;2022-07-10T04:53:28;101278.88;;;20.38;44.42
40490;BME280;26196;52.302;10.572;2022-07-10T04:57:29;101299.22;;;20.39;44.55
40490;BME280;26196;52.302;10.572;2022-07-10T05:01:30;101301.13;;;20.37;44.57
40490;BME280;26196;52.302;10.572;2022-07-10T05:05:30;101288.78;;;20.36;44.58
40490;BME280;26196;52.302;10.572;2022-07-10T05:09:31;101296.91;;;20.33;44.77
40490;BME280;26196;52.302;10.572;2022-07-10T05:13:31;101295.25;;;20.30;44.96
40490;BME280;26196;52.302;10.572;2022-07-10T05:17:32;101302.38;;;20.30;44.93
40490;BME280;26196;52.302;10.572;2022-07-10T05:21:32;101291.06;;;20.26;45.03
40490;BME280;26196;52.302;10.572;2022-07-10T05:25:33;101296.41;;;20.26;44.92
40490;BME280;26196;52.302;10.572;2022-07-10T05:29:33;101279.75;;;20.23;45.11
40490;BME280;26196;52.302;10.572;2022-07-10T05:33:34;101280.75;;;20.20;45.10
40490;BME280;26196;52.302;10.572;2022-07-10T05:37:34;101282.31;;;20.24;45.19
40490;BME280;26196;52.302;10.572;2022-07-10T05:41:35;101278.88;;;20.22;45.19
40490;BME280;26196;52.302;10.572;2022-07-10T05:45:36;101283.41;;;20.20;45.29
40490;BME280;26196;52.302;10.572;2022-07-10T05:49:36;101286.97;;;20.21;45.39
40490;BME280;26196;52.302;10.572;2022-07-10T05:53:38;101288.91;;;20.17;45.29
40490;BME280;26196;52.302;10.572;2022-07-10T05:57:38;101293.19;;;20.20;45.48
40490;BME280;26196;52.302;10.572;2022-07-10T06:01:39;101289.75;;;20.18;45.62
40490;BME280;26196;52.302;10.572;2022-07-10T06:05:39;101296.88;;;20.17;45.51
40490;BME280;26196;52.302;10.572;2022-07-10T06:09:40;101300.41;;;20.18;45.62
40490;BME280;26196;52.302;10.572;2022-07-10T06:13:40;101299.47;;;20.19;45.77
40490;BME280;26196;52.302;10.572;2022-07-10T06:17:41;101292.41;;;20.18;45.67
40490;BME280;26196;52.302;10.572;2022-07-10T06:21:41;101293.44;;;20.15;46.01
40490;BME280;26196;52.302;10.572;2022-07-10T06:25:42;101289.88;;;20.16;46.43
40490;BME280;26196;52.302;10.572;2022-07-10T06:29:42;101295.19;;;20.16;46.59
40490;BME280;26196;52.302;10.572;2022-07-10T06:33:43;101297.75;;;20.18;46.79
40490;BME280;26196;52.302;10.572;2022-07-10T06:37:43;101293.56;;;20.14;46.90
40490;BME280;26196;52.302;10.572;2022-07-10T06:41:44;101304.78;;;20.19;46.71
40490;BME280;26196;52.302;10.572;2022-07-10T06:45:44;101297.00;;;20.16;46.86
40490;BME280;26196;52.302;10.572;2022-07-10T06:49:46;101288.31;;;20.12;46.98
40490;BME280;26196;52.302;10.572;2022-07-10T06:53:48;101297.06;;;20.14;47.01
40490;BME280;26196;52.302;10.572;2022-07-10T06:57:49;101293.56;;;20.14;47.09
40490;BME280;26196;52.302;10.572;2022-07-10T07:01:50;101292.59;;;20.15;47.03
40490;BME280;26196;52.302;10.572;2022-07-10T07:05:50;101287.44;;;20.11;46.98
40490;BME280;26196;52.302;10.572;2022-07-10T07:09:52;101261.94;;;19.92;46.88
40490;BME280;26196;52.302;10.572;2022-07-10T07:13:53;101296.25;;;19.96;46.72
40490;BME280;26196;52.302;10.572;2022-07-10T07:17:53;101292.91;;;19.93;46.40
40490;BME280;26196;52.302;10.572;2022-07-10T07:21:58;101285.88;;;19.92;46.78
40490;BME280;26196;52.302;10.572;2022-07-10T07:26:17;101288.13;;;19.99;46.84
40490;BME280;26196;52.302;10.572;2022-07-10T07:30:18;101300.47;;;20.00;46.81
40490;BME280;26196;52.302;10.572;2022-07-10T07:34:18;101288.03;;;20.01;47.10
40490;BME280;26196;52.302;10.572;2022-07-10T07:38:18;101290.78;;;19.99;47.20
40490;BME280;26196;52.302;10.572;2022-07-10T07:42:19;101293.59;;;19.96;46.93
40490;BME280;26196;52.302;10.572;2022-07-10T07:46:20;101281.25;;;19.95;47.10
40490;BME280;26196;52.302;10.572;2022-07-10T07:50:41;101290.03;;;19.97;47.16
40490;BME280;26196;52.302;10.572;2022-07-10T07:54:42;101286.59;;;19.95;47.29
40490;BME280;26196;52.302;10.572;2022-07-10T07:58:43;101285.63;;;19.96;47.18
40490;BME280;26196;52.302;10.572;2022-07-10T08:02:43;101284.00;;;19.94;47.16
40490;BME280;26196;52.302;10.572;2022-07-10T08:06:44;101285.88;;;19.92;47.07
40490;BME280;26196;52.302;10.572;2022-07-10T08:10:45;101281.56;;;19.89;46.90
40490;BME280;26196;52.302;10.572;2022-07-10T08:14:45;101285.19;;;19.88;46.62
40490;BME280;26196;52.302;10.572;2022-07-10T08:18:45;101273.78;;;19.86;46.69
40490;BME280;26196;52.302;10.572;2022-07-10T08:22:46;101288.97;;;19.84;46.32
40490;BME280;26196;52.302;10.572;2022-07-10T08:26:47;101279.88;;;19.88;46.43
40490;BME280;26196;52.302;10.572;2022-07-10T08:30:47;101276.25;;;19.89;46.22
40490;BME280;26196;52.302;10.572;2022-07-10T08:34:48;101261.34;;;19.86;46.40
40490;BME280;26196;52.302;10.572;2022-07-10T08:38:49;101246.28;;;19.87;46.17
40490;BME280;26196;52.302;10.572;2022-07-10T08:42:49;101251.78;;;19.84;46.10
40490;BME280;26196;52.302;10.572;2022-07-10T08:46:50;101248.84;;;19.88;46.31
40490;BME280;26196;52.302;10.572;2022-07-10T08:50:54;101259.47;;;19.88;46.25
40490;BME280;26196;52.302;10.572;2022-07-10T08:54:56;101261.22;;;19.89;46.25
40490;BME280;26196;52.302;10.572;2022-07-10T08:58:57;101262.97;;;19.89;46.36
40490;BME280;26196;52.302;10.572;2022-07-10T09:02:59;101263.09;;;19.87;46.49
40490;BME280;26196;52.302;10.572;2022-07-10T09:06:59;101262.41;;;19.84;46.02
40490;BME280;26196;52.302;10.572;2022-07-10T09:11:32;101262.53;;;19.81;45.61
40490;BME280;26196;52.302;10.572;2022-07-10T09:15:33;101265.97;;;19.83;45.67
40490;BME280;26196;52.302;10.572;2022-07-10T09:19:35;101256.38;;;19.80;45.31
40490;BME280;26196;52.302;10.572;2022-07-10T09:23:35;101252.19;;;19.76;45.40
40490;BME280;26196;52.302;10.572;2022-07-10T09:27:50;101258.34;;;19.77;45.21
40490;BME280;26196;52.302;10.572;2022-07-10T09:31:54;101254.22;;;19.71;44.29
40490;BME280;26196;52.302;10.572;2022-07-10T09:36:03;101246.25;;;19.71;44.61
40490;BME280;26196;52.302;10.572;2022-07-10T09:40:19;101239.94;;;19.74;44.67
40490;BME280;26196;52.302;10.572;2022-07-10T09:44:19;101245.25;;;19.74;44.62
40490;BME280;26196;52.302;10.572;2022-07-10T09:48:23;101238.97;;;19.75;44.24
40490;BME280;26196;52.302;10.572;2022-07-10T09:52:23;101240.78;;;19.74;44.31
40490;BME280;26196;52.302;10.572;2022-07-10T09:56:25;101236.50;;;19.72;44.51
40490;BME280;26196;52.302;10.572;2022-07-10T10:00:35;101231.19;;;19.72;44.35
40490;BME280;26196;52.302;10.572;2022-07-10T10:04:37;101215.41;;;19.69;44.37
40490;BME280;26196;52.302;10.572;2022-07-10T10:09:02;101212.66;;;19.70;44.08
40490;BME280;26196;52.302;10.572;2022-07-10T10:13:07;101226.53;;;19.75;44.01
40490;BME280;26196;52.302;10.572;2022-07-10T10:17:10;101221.22;;;19.75;44.02
40490;BME280;26196;52.302;10.572;2022-07-10T10:21:12;101213.25;;;19.75;43.87
40490;BME280;26196;52.302;10.572;2022-07-10T10:25:13;101224.59;;;19.79;44.15
40490;BME280;26196;52.302;10.572;2022-07-10T10:29:17;101210.53;;;19.77;44.02
40490;BME280;26196;52.302;10.572;2022-07-10T10:37:40;101222.78;;;19.79;44.07
40490;BME280;26196;52.302;10.572;2022-07-10T10:41:53;101221.78;;;19.82;44.00
40490;BME280;26196;52.302;10.572;2022-07-10T10:45:54;101219.91;;;19.84;43.98
40490;BME280;26196;52.302;10.572;2022-07-10T10:49:56;101229.56;;;19.85;43.98
40490;BME280;26196;52.302;10.572;2022-07-10T10:54:05;101234.03;;;19.84;44.03
40490;BME280;26196;52.302;10.572;2022-07-10T10:58:15;101226.91;;;19.85;43.85
40490;BME280;26196;52.302;10.572;2022-07-10T11:02:31;101225.03;;;19.87;43.82
40490;BME280;26196;52.302;10.572;2022-07-10T11:06:48;101216.28;;;19.85;43.91
40490;BME280;26196;52.302;10.572;2022-07-10T11:10:49;101221.44;;;19.88;43.86
40490;BME280;26196;52.302;10.572;2022-07-10T11:14:49;101207.28;;;19.87;43.74
40490;BME280;26196;52.302;10.572;2022-07-10T11:18:53;101215.09;;;19.91;43.70
40490;BME280;26196;52.302;10.572;2022-07-10T11:23:10;101215.88;;;19.93;43.65
40490;BME280;26196;52.302;10.572;2022-07-10T11:27:15;101193.56;;;19.79;43.71
40490;BME280;26196;52.302;10.572;2022-07-10T11:31:23;101217.56;;;19.94;43.64
40490;BME280;26196;52.302;10.572;2022-07-10T11:35:24;101202.41;;;19.96;43.46
40490;BME280;26196;52.302;10.572;2022-07-10T11:39:24;101201.44;;;19.97;43.48
40490;BME280;26196;52.302;10.572;2022-07-10T11:43:25;101209.28;;;20.00;43.52
40490;BME280;26196;52.302;10.572;2022-07-10T11:47:26;101217.16;;;20.01;43.39
40490;BME280;26196;52.302;10.572;2022-07-10T11:51:29;101194.00;;;20.03;43.24
40490;BME280;26196;52.302;10.572;2022-07-10T11:55:30;101196.59;;;20.05;43.35
40490;BME280;26196;52.302;10.572;2022-07-10T11:59:36;101195.63;;;20.06;43.21
40490;BME280;26196;52.302;10.572;2022-07-10T12:03:37;101205.16;;;20.10;43.23
40490;BME280;26196;52.302;10.572;2022-07-10T12:07:37;101201.72;;;20.08;42.92
40490;BME280;26196;52.302;10.572;2022-07-10T12:11:39;101196.91;;;20.15;42.78
40490;BME280;26196;52.302;10.572;2022-07-10T12:15:46;101198.81;;;20.13;42.81
40490;BME280;26196;52.302;10.572;2022-07-10T12:19:47;101188.19;;;20.13;42.78
40490;BME280;26196;52.302;10.572;2022-07-10T12:23:51;101192.97;;;20.22;43.02
40490;BME280;26196;52.302;10.572;2022-07-10T12:27:55;101201.78;;;20.22;43.07
40490;BME280;26196;52.302;10.572;2022-07-10T12:32:00;101205.16;;;20.26;43.13
40490;BME280;26196;52.302;10.572;2022-07-10T12:36:01;101213.72;;;20.31;43.07
40490;BME280;26196;52.302;10.572;2022-07-10T12:40:02;101211.75;;;20.35;42.96
40490;BME280;26196;52.302;10.572;2022-07-10T12:44:03;101206.69;;;20.30;42.93
40490;BME280;26196;52.302;10.572;2022-07-10T12:48:04;101217.72;;;20.38;43.06
40490;BME280;26196;52.302;10.572;2022-07-10T12:52:19;101191.91;;;20.40;43.20
40490;BME280;26196;52.302;10.572;2022-07-10T12:56:36;101204.19;;;20.43;43.18
40490;BME280;26196;52.302;10.572;2022-07-10T13:00:44;101196.88;;;20.46;43.23
40490;BME280;26196;52.302;10.572;2022-07-10T13:04:52;101216.25;;;20.48;43.24
40490;BME280;26196;52.302;10.572;2022-07-10T13:08:53;101223.22;;;20.51;43.14
40490;BME280;26196;52.302;10.572;2022-07-10T13:12:54;101216.81;;;20.55;42.98
40490;BME280;26196;52.302;10.572;2022-07-10T13:16:55;101216.81;;;20.55;42.89
40490;BME280;26196;52.302;10.572;2022-07-10T13:20:57;101220.16;;;20.59;43.07
40490;BME280;26196;52.302;10.572;2022-07-10T13:24:58;101224.53;;;20.60;43.16
40490;BME280;26196;52.302;10.572;2022-07-10T13:28:59;101220.91;;;20.61;43.10
40490;BME280;26196;52.302;10.572;2022-07-10T13:32:59;101225.38;;;20.60;43.10
40490;BME280;26196;52.302;10.572;2022-07-10T13:37:00;101225.56;;;20.57;42.98
40490;BME280;26196;52.302;10.572;2022-07-10T13:41:01;101231.75;;;20.58;42.91
40490;BME280;26196;52.302;10.572;2022-07-10T13:45:01;101227.09;;;20.61;42.98
40490;BME280;26196;52.302;10.572;2022-07-10T13:49:02;101221.78;;;20.61;42.84
40490;BME280;26196;52.302;10.572;2022-07-10T13:53:03;101209.44;;;20.60;42.92
40490;BME280;26196;52.302;10.572;2022-07-10T13:57:03;101221.00;;;20.59;42.88
40490;BME280;26196;52.302;10.572;2022-07-10T14:01:04;101220.56;;;20.67;42.82
40490;BME280;26196;52.302;10.572;2022-07-10T14:05:05;101221.25;;;20.70;42.82
40490;BME280;26196;52.302;10.572;2022-07-10T14:09:08;101222.94;;;20.71;42.94
40490;BME280;26196;52.302;10.572;2022-07-10T14:13:08;101230.84;;;20.73;42.51
40490;BME280;26196;52.302;10.572;2022-07-10T14:17:09;101234.25;;;20.75;42.38
40490;BME280;26196;52.302;10.572;2022-07-10T14:21:10;101236.00;;;20.76;42.37
40490;BME280;26196;52.302;10.572;2022-07-10T14:25:11;101222.94;;;20.71;42.32
40490;BME280;26196;52.302;10.572;2022-07-10T14:29:12;101228.00;;;20.76;42.57
40490;BME280;26196;52.302;10.572;2022-07-10T14:33:12;101230.47;;;20.79;42.55
40490;BME280;26196;52.302;10.572;2022-07-10T14:37:13;101221.91;;;20.74;42.41
40490;BME280;26196;52.302;10.572;2022-07-10T14:41:14;101228.84;;;20.76;42.41
40490;BME280;26196;52.302;10.572;2022-07-10T14:45:15;101230.47;;;20.79;42.38
40490;BME280;26196;52.302;10.572;2022-07-10T14:49:15;101221.47;;;20.82;42.42
40490;BME280;26196;52.302;10.572;2022-07-10T14:53:16;101223.09;;;20.84;42.52
40490;BME280;26196;52.302;10.572;2022-07-10T14:57:17;101225.56;;;20.87;42.49
40490;BME280;26196;52.302;10.572;2022-07-10T15:01:17;101219.31;;;20.88;42.54
40490;BME280;26196;52.302;10.572;2022-07-10T15:05:18;101213.81;;;20.91;42.34
40490;BME280;26196;52.302;10.572;2022-07-10T15:09:19;101212.78;;;20.94;42.80
40490;BME280;26196;52.302;10.572;2022-07-10T15:13:19;101211.72;;;20.96;42.65
40490;BME280;26196;52.302;10.572;2022-07-10T15:17:20;101212.78;;;20.94;42.55
40490;BME280;26196;52.302;10.572;2022-07-10T15:21:21;101208.28;;;20.94;42.79
40490;BME280;26196;52.302;10.572;2022-07-10T15:25:21;101217.72;;;21.00;42.79
40490;BME280;26196;52.302;10.572;2022-07-10T15:29:22;101203.38;;;21.03;42.89
40490;BME280;26196;52.302;10.572;2022-07-10T15:33:24;101194.41;;;21.04;43.00
40490;BME280;26196;52.302;10.572;2022-07-10T15:37:24;101173.78;;;20.93;42.74
40490;BME280;26196;52.302;10.572;2022-07-10T15:41:25;101201.22;;;21.09;42.86
40490;BME280;26196;52.302;10.572;2022-07-10T15:45:26;101201.09;;;21.11;42.85
40490;BME280;26196;52.302;10.572;2022-07-10T15:49:27;101201.09;;;21.11;42.86
40490;BME280;26196;52.302;10.572;2022-07-10T15:53:27;101178.66;;;21.01;42.73
40490;BME280;26196;52.302;10.572;2022-07-10T15:57:28;101200.06;;;21.13;42.70
40490;BME280;26196;52.302;10.572;2022-07-10T16:01:28;101198.25;;;21.14;42.85
40490;BME280;26196;52.302;10.572;2022-07-10T16:05:29;101185.63;;;21.17;42.84
40490;BME280;26196;52.302;10.572;2022-07-10T16:09:29;101184.59;;;21.20;42.78
40490;BME280;26196;52.302;10.572;2022-07-10T16:13:30;101174.84;;;21.19;42.81
40490;BME280;26196;52.302;10.572;2022-07-10T16:17:31;101181.72;;;21.23;42.95
40490;BME280;26196;52.302;10.572;2022-07-10T16:21:31;101178.03;;;21.26;42.96
40490;BME280;26196;52.302;10.572;2022-07-10T16:25:32;101179.84;;;21.25;42.86
40490;BME280;26196;52.302;10.572;2022-07-10T16:29:51;101196.47;;;21.29;42.98
40490;BME280;26196;52.302;10.572;2022-07-10T16:33:52;101188.19;;;21.33;42.93
40490;BME280;26196;52.302;10.572;2022-07-10T16:37:52;101188.84;;;21.37;42.92
40490;BME280;26196;52.302;10.572;2022-07-10T16:41:53;101182.69;;;21.36;42.85
40490;BME280;26196;52.302;10.572;2022-07-10T16:45:54;101183.47;;;21.38;42.99
40490;BME280;26196;52.302;10.572;2022-07-10T16:49:54;101169.00;;;21.28;42.85
40490;BME280;26196;52.302;10.572;2022-07-10T16:53:57;101178.31;;;21.35;42.81
40490;BME280;26196;52.302;10.572;2022-07-10T16:57:58;101185.28;;;21.38;43.00
40490;BME280;26196;52.302;10.572;2022-07-10T17:01:59;101184.25;;;21.40;42.85
40490;BME280;26196;52.302;10.572;2022-07-10T17:05:59;101170.94;;;21.40;42.89
40490;BME280;26196;52.302;10.572;2022-07-10T17:10:00;101178.94;;;21.40;42.98
40490;BME280;26196;52.302;10.572;2022-07-10T17:14:00;101177.69;;;21.46;42.82
40490;BME280;26196;52.302;10.572;2022-07-10T17:18:01;101178.53;;;21.47;42.94
40490;BME280;26196;52.302;10.572;2022-07-10T17:22:02;101170.47;;;21.48;42.81
40490;BME280;26196;52.302;10.572;2022-07-10T17:26:03;101171.38;;;21.47;42.71
40490;BME280;26196;52.302;10.572;2022-07-10T17:30:04;101171.31;;;21.49;42.81
40490;BME280;26196;52.302;10.572;2022-07-10T17:34:05;101171.50;;;21.46;42.73
40490;BME280;26196;52.302;10.572;2022-07-10T17:38:05;101174.16;;;21.46;42.71
40490;BME280;26196;52.302;10.572;2022-07-10T17:42:05;101177.00;;;21.42;42.51
40490;BME280;26196;52.302;10.572;2022-07-10T17:46:06;101178.72;;;21.44;42.39
40490;BME280;26196;52.302;10.572;2022-07-10T17:50:07;101179.56;;;21.44;42.44
40490;BME280;26196;52.302;10.572;2022-07-10T17:54:08;101186.59;;;21.45;42.36
40490;BME280;26196;52.302;10.572;2022-07-10T17:58:09;101184.81;;;21.46;42.58
40490;BME280;26196;52.302;10.572;2022-07-10T18:02:09;101178.34;;;21.50;42.51
40490;BME280;26196;52.302;10.572;2022-07-10T18:06:10;101184.72;;;21.47;42.78
40490;BME280;26196;52.302;10.572;2022-07-10T18:10:11;101178.44;;;21.48;42.90
40490;BME280;26196;52.302;10.572;2022-07-10T18:14:13;101176.72;;;21.47;42.98
40490;BME280;26196;52.302;10.572;2022-07-10T18:18:14;101184.81;;;21.46;42.87
40490;BME280;26196;52.302;10.572;2022-07-10T18:22:14;101180.34;;;21.46;42.75
40490;BME280;26196;52.302;10.572;2022-07-10T18:26:15;101185.56;;;21.48;42.63
40490;BME280;26196;52.302;10.572;2022-07-10T18:30:15;101180.44;;;21.45;42.69
40490;BME280;26196;52.302;10.572;2022-07-10T18:34:16;101183.22;;;21.43;42.74
40490;BME280;26196;52.302;10.572;2022-07-10T18:38:32;101185.75;;;21.45;42.78
40490;BME280;26196;52.302;10.572;2022-07-10T18:42:33;101187.66;;;21.42;42.73
40490;BME280;26196;52.302;10.572;2022-07-10T18:46:34;101192.31;;;21.39;42.58
40490;BME280;26196;52.302;10.572;2022-07-10T18:50:34;101198.31;;;21.42;42.52
40490;BME280;26196;52.302;10.572;2022-07-10T18:54:35;101191.19;;;21.43;42.56
40490;BME280;26196;52.302;10.572;2022-07-10T18:58:35;101198.31;;;21.42;42.60
40490;BME280;26196;52.302;10.572;2022-07-10T19:02:36;101204.59;;;21.41;42.67
40490;BME280;26196;52.302;10.572;2022-07-10T19:06:36;101210.69;;;21.44;42.80
40490;BME280;26196;52.302;10.572;2022-07-10T19:10:37;101213.44;;;21.42;42.70
40490;BME280;26196;52.302;10.572;2022-07-10T19:14:38;101216.22;;;21.40;42.69
40490;BME280;26196;52.302;10.572;2022-07-10T19:18:38;101220.56;;;21.41;42.59
40490;BME280;26196;52.302;10.572;2022-07-10T19:22:43;101222.28;;;21.42;42.66
40490;BME280;26196;52.302;10.572;2022-07-10T19:26:44;101214.63;;;21.36;42.87
40490;BME280;26196;52.302;10.572;2022-07-10T19:30:45;101229.53;;;21.40;42.87
40490;BME280;26196;52.302;10.572;2022-07-10T19:34:46;101234.13;;;21.37;42.94
40490;BME280;26196;52.302;10.572;2022-07-10T19:38:46;101243.88;;;21.38;42.99
40490;BME280;26196;52.302;10.572;2022-07-10T19:42:47;101235.94;;;21.36;43.07
40490;BME280;26196;52.302;10.572;2022-07-10T19:46:48;101242.13;;;21.37;42.99
40490;BME280;26196;52.302;10.572;2022-07-10T19:50:49;101242.22;;;21.35;43.06
40490;BME280;26196;52.302;10.572;2022-07-10T19:54:49;101245.63;;;21.37;42.99
40490;BME280;26196;52.302;10.572;2022-07-10T19:58:50;101245.63;;;21.37;43.04
40490;BME280;26196;52.302;10.572;2022-07-10T20:02:50;101246.88;;;21.32;43.18
40490;BME280;26196;52.302;10.572;2022-07-10T20:06:52;101259.31;;;21.31;43.01
40490;BME280;26196;52.302;10.572;2022-07-10T20:10:53;101256.84;;;21.28;42.91
40490;BME280;26196;52.302;10.572;2022-07-10T20:14:53;101258.81;;;21.25;43.03
40490;BME280;26196;52.302;10.572;2022-07-10T20:18:54;101253.41;;;21.26;43.01
40490;BME280;26196;52.302;10.572;2022-07-10T20:22:54;101257.78;;;21.27;42.98
40490;BME280;26196;52.302;10.572;2022-07-10T20:26:55;101262.19;;;21.28;42.97
40490;BME280;26196;52.302;10.572;2022-07-10T20:30:57;101265.03;;;21.25;42.96
40490;BME280;26196;52.302;10.572;2022-07-10T20:35:00;101269.22;;;21.29;43.06
40490;BME280;26196;52.302;10.572;2022-07-10T20:39:01;101270.25;;;21.27;43.07
40490;BME280;26196;52.302;10.572;2022-07-10T20:43:02;101277.47;;;21.25;43.12
40490;BME280;26196;52.302;10.572;2022-07-10T20:47:03;101279.09;;;21.27;43.10
40490;BME280;26196;52.302;10.572;2022-07-10T20:51:03;101282.91;;;21.23;43.07